createdAt,value
2022-08-03T00:00:23.199Z,53.71
2022-08-03T00:01:23.218Z,53.61
2022-08-03T00:02:23.231Z,54.00
2022-08-03T00:03:23.326Z,53.91
2022-08-03T00:04:23.251Z,53.91
2022-08-03T00:05:23.265Z,53.91
2022-08-03T00:06:23.281Z,53.81
2022-08-03T00:07:23.288Z,53.42
2022-08-03T00:08:23.300Z,53.52
2022-08-03T00:09:23.314Z,53.42
2022-08-03T00:10:23.331Z,53.42
2022-08-03T00:11:23.346Z,53.42
2022-08-03T00:12:23.358Z,53.23
2022-08-03T00:13:36.107Z,53.52
2022-08-03T00:14:23.378Z,53.42
2022-08-03T00:15:23.396Z,53.52
2022-08-03T00:16:23.403Z,53.52
2022-08-03T00:17:23.422Z,53.13
2022-08-03T00:18:23.436Z,53.23
2022-08-03T00:19:23.447Z,53.33
2022-08-03T00:20:23.461Z,53.23
2022-08-03T00:21:23.474Z,53.52
2022-08-03T00:22:23.486Z,53.52
2022-08-03T00:23:23.493Z,53.52
2022-08-03T00:24:23.505Z,53.42
2022-08-03T00:25:23.518Z,53.42
2022-08-03T00:26:23.535Z,53.52
2022-08-03T00:27:23.552Z,53.61
2022-08-03T00:28:26.993Z,53.23
2022-08-03T00:29:23.571Z,53.52
2022-08-03T00:30:23.600Z,53.23
2022-08-03T00:31:42.215Z,53.42
2022-08-03T00:32:24.077Z,53.52
2022-08-03T00:33:23.628Z,53.52
2022-08-03T00:34:36.627Z,53.52
2022-08-03T00:35:34.408Z,53.13
2022-08-03T00:36:23.657Z,53.52
2022-08-03T00:37:23.671Z,53.52
2022-08-03T00:38:24.895Z,53.42
2022-08-03T00:39:24.504Z,54.10
2022-08-03T00:40:23.717Z,53.52
2022-08-03T00:41:23.718Z,53.52
2022-08-03T00:42:23.740Z,53.61
2022-08-03T00:43:23.745Z,53.52
2022-08-03T00:44:23.759Z,53.42
2022-08-03T00:45:23.777Z,53.52
2022-08-03T00:46:23.793Z,53.42
2022-08-03T00:47:27.839Z,53.61
2022-08-03T00:48:33.457Z,53.42
2022-08-03T00:49:23.889Z,53.52
2022-08-03T00:50:26.455Z,53.52
2022-08-03T00:51:23.844Z,53.81
2022-08-03T00:52:23.860Z,53.42
2022-08-03T00:53:23.870Z,53.52
2022-08-03T01:08:27.275Z,53.81
2022-08-03T01:09:27.288Z,53.91
2022-08-03T01:10:27.298Z,53.91
2022-08-03T01:11:27.319Z,53.81
2022-08-03T01:12:27.328Z,53.81
2022-08-03T01:13:59.197Z,53.91
2022-08-03T01:14:27.355Z,54.00
2022-08-03T01:15:27.359Z,53.61
2022-08-03T01:16:35.669Z,53.61
2022-08-03T01:17:27.389Z,53.81
2022-08-03T01:18:27.396Z,53.52
2022-08-03T01:19:27.413Z,53.61
2022-08-03T01:20:27.426Z,53.52
2022-08-03T01:21:27.430Z,53.71
2022-08-03T01:22:27.445Z,54.00
2022-08-03T01:23:29.008Z,53.81
2022-08-03T01:24:27.476Z,54.00
2022-08-03T01:25:27.487Z,54.10
2022-08-03T01:26:27.493Z,53.91
2022-08-03T01:27:27.512Z,54.19
2022-08-03T01:28:27.527Z,54.29
2022-08-03T01:29:27.530Z,54.58
2022-08-03T01:30:27.543Z,54.58
2022-08-03T01:31:27.569Z,54.29
2022-08-03T01:33:03.019Z,54.39
2022-08-03T01:33:27.582Z,54.39
2022-08-03T01:34:27.596Z,54.49
2022-08-03T01:35:27.612Z,54.39
2022-08-03T01:36:27.628Z,54.49
2022-08-03T01:37:27.638Z,54.87
2022-08-03T01:38:27.643Z,54.77
2022-08-03T01:39:27.655Z,54.58
2022-08-03T01:40:27.668Z,54.77
2022-08-03T01:41:27.689Z,55.07
2022-08-03T01:42:27.709Z,55.16
2022-08-03T01:44:26.680Z,54.77
2022-08-03T01:44:30.770Z,54.97
2022-08-03T01:45:27.731Z,55.16
2022-08-03T01:46:27.741Z,55.45
2022-08-03T01:47:27.761Z,55.65
2022-08-03T01:48:27.766Z,55.45
2022-08-03T01:49:27.841Z,55.26
2022-08-03T01:50:27.798Z,55.35
2022-08-03T01:51:56.685Z,55.35
2022-08-03T01:52:27.817Z,55.35
2022-08-03T01:53:27.835Z,55.55
2022-08-03T01:54:27.848Z,55.74
2022-08-03T01:55:27.859Z,55.55
2022-08-03T01:56:27.866Z,55.55
2022-08-03T01:57:27.885Z,55.65
2022-08-03T01:58:27.892Z,55.65
2022-08-03T01:59:27.903Z,55.65
2022-08-03T02:00:27.915Z,55.83
2022-08-03T02:01:27.973Z,56.03
2022-08-03T02:02:33.930Z,55.83
2022-08-03T02:03:27.954Z,55.83
2022-08-03T02:04:27.972Z,55.74
2022-08-03T02:05:28.988Z,55.83
2022-08-03T02:06:59.652Z,55.74
2022-08-03T02:07:28.000Z,56.13
2022-08-03T02:08:28.023Z,55.74
2022-08-03T02:09:28.035Z,55.74
2022-08-03T02:10:35.437Z,55.71
2022-08-03T02:11:28.053Z,55.62
2022-08-03T02:12:28.072Z,55.52
2022-08-03T02:13:28.083Z,55.71
2022-08-03T02:14:28.091Z,55.81
2022-08-03T02:15:28.108Z,55.52
2022-08-03T02:16:28.115Z,55.81
2022-08-03T02:17:39.263Z,55.81
2022-08-03T02:18:28.141Z,55.71
2022-08-03T02:19:31.345Z,55.62
2022-08-03T02:20:28.171Z,55.71
2022-08-03T02:21:56.912Z,55.62
2022-08-03T02:22:28.190Z,55.62
2022-08-03T02:23:28.200Z,55.40
2022-08-03T02:24:29.032Z,55.68
2022-08-03T02:25:28.231Z,55.68
2022-08-03T02:26:28.238Z,56.16
2022-08-03T02:27:28.256Z,55.88
2022-08-03T02:28:28.267Z,55.88
2022-08-03T02:29:40.406Z,55.78
2022-08-03T02:30:28.292Z,55.68
2022-08-03T02:33:54.163Z,55.68
2022-08-03T02:34:54.174Z,56.07
2022-08-03T02:35:54.196Z,55.98
2022-08-03T02:36:54.197Z,55.98
2022-08-03T02:37:54.210Z,55.88
2022-08-03T02:38:54.227Z,56.36
2022-08-03T02:39:54.241Z,56.74
2022-08-03T02:40:54.246Z,56.36
2022-08-03T02:41:54.257Z,56.74
2022-08-03T02:42:54.277Z,56.74
2022-08-03T02:44:05.659Z,56.65
2022-08-03T02:44:54.293Z,56.46
2022-08-03T02:45:54.304Z,56.74
2022-08-03T02:46:54.318Z,56.65
2022-08-03T02:47:54.944Z,56.74
2022-08-03T02:48:54.435Z,56.56
2022-08-03T02:49:54.420Z,56.74
2022-08-03T02:50:54.373Z,56.56
2022-08-03T02:51:54.389Z,56.84
2022-08-03T02:52:54.390Z,56.65
2022-08-03T02:53:54.400Z,56.74
2022-08-03T02:54:54.425Z,56.56
2022-08-03T02:55:54.432Z,56.65
2022-08-03T02:56:54.446Z,56.94
2022-08-03T02:57:54.457Z,56.65
2022-08-03T02:58:54.468Z,56.84
2022-08-03T02:59:54.483Z,57.04
2022-08-03T03:00:54.576Z,57.23
2022-08-03T03:01:54.506Z,57.23
2022-08-03T03:02:54.510Z,57.04
2022-08-03T03:03:54.531Z,57.04
2022-08-03T03:05:52.011Z,57.04
2022-08-03T03:05:57.654Z,57.32
2022-08-03T03:06:54.558Z,57.04
2022-08-03T03:07:54.571Z,57.23
2022-08-03T03:08:59.315Z,57.14
2022-08-03T03:11:12.222Z,56.91
2022-08-03T03:12:12.231Z,57.01
2022-08-03T03:13:12.242Z,57.39
2022-08-03T03:14:12.248Z,57.23
2022-08-03T03:15:12.267Z,57.39
2022-08-03T03:16:12.279Z,57.68
2022-08-03T03:17:12.293Z,57.59
2022-08-03T03:18:12.301Z,57.29
2022-08-03T03:19:12.308Z,57.39
2022-08-03T03:20:12.318Z,57.78
2022-08-03T03:21:12.332Z,57.68
2022-08-03T03:22:12.348Z,57.87
2022-08-03T03:23:15.192Z,57.59
2022-08-03T03:24:12.373Z,57.78
2022-08-03T03:25:12.379Z,57.59
2022-08-03T03:26:12.397Z,57.68
2022-08-03T03:27:12.403Z,57.87
2022-08-03T03:28:12.422Z,58.07
2022-08-03T03:30:00.395Z,57.97
2022-08-03T03:31:00.026Z,58.17
2022-08-03T03:32:00.820Z,58.26
2022-08-03T03:33:00.020Z,58.17
2022-08-03T03:34:00.039Z,58.36
2022-08-03T03:37:50.962Z,58.36
2022-08-03T03:38:50.967Z,58.26
2022-08-03T03:39:50.987Z,58.84
2022-08-03T03:40:50.992Z,58.81
2022-08-03T03:41:51.007Z,58.94
2022-08-03T03:42:51.020Z,58.94
2022-08-03T03:43:51.024Z,59.03
2022-08-03T03:44:51.038Z,58.84
2022-08-03T03:45:51.050Z,58.55
2022-08-03T03:46:51.067Z,59.03
2022-08-03T03:47:51.070Z,59.32
2022-08-03T03:48:51.082Z,59.23
2022-08-03T03:49:51.101Z,59.52
2022-08-03T03:50:51.113Z,59.32
2022-08-03T03:51:51.123Z,59.61
2022-08-03T03:52:51.127Z,59.80
2022-08-03T03:53:51.140Z,59.80
2022-08-03T03:56:21.261Z,59.42
2022-08-03T04:01:30.447Z,59.61
2022-08-03T04:06:39.637Z,59.61
2022-08-03T04:07:39.653Z,59.90
2022-08-03T04:08:39.666Z,60.00
2022-08-03T04:09:39.677Z,60.00
2022-08-03T04:10:39.689Z,59.71
2022-08-03T04:11:39.692Z,59.71
2022-08-03T04:12:39.705Z,60.00
2022-08-03T04:13:39.728Z,59.71
2022-08-03T04:14:42.550Z,60.19
2022-08-03T04:15:39.745Z,60.19
2022-08-03T04:45:27.241Z,61.64
2022-08-03T05:19:52.785Z,61.02
2022-08-03T05:21:41.790Z,60.64
2022-08-03T05:22:40.357Z,60.73
2022-08-03T05:23:40.368Z,60.73
2022-08-03T05:24:40.377Z,60.64
2022-08-03T05:25:40.397Z,61.12
2022-08-03T05:26:40.407Z,61.12
2022-08-03T05:27:40.412Z,61.09
2022-08-03T05:28:40.424Z,61.02
2022-08-03T05:29:40.440Z,61.09
2022-08-03T05:30:40.445Z,61.02
2022-08-03T05:31:40.462Z,60.64
2022-08-03T05:32:40.467Z,60.44
2022-08-03T05:33:40.481Z,60.83
2022-08-03T05:34:40.496Z,60.54
2022-08-03T05:35:57.424Z,60.54
2022-08-03T05:36:40.514Z,61.02
2022-08-03T05:37:40.532Z,60.83
2022-08-03T05:38:40.537Z,60.73
2022-08-03T05:39:40.547Z,60.83
2022-08-03T05:40:40.561Z,60.83
2022-08-03T05:41:40.580Z,60.64
2022-08-03T05:42:40.590Z,60.35
2022-08-03T05:43:40.604Z,60.44
2022-08-03T05:46:27.444Z,60.67
2022-08-03T05:46:53.227Z,60.18
2022-08-03T05:47:53.240Z,60.18
2022-08-03T05:48:53.312Z,59.99
2022-08-03T05:49:53.264Z,59.89
2022-08-03T05:52:38.415Z,59.70
2022-08-03T05:53:38.426Z,59.51
2022-08-03T05:54:55.833Z,59.70
2022-08-03T05:56:36.029Z,59.51
2022-08-03T05:57:36.035Z,59.73
2022-08-03T05:58:36.053Z,59.63
2022-08-03T05:59:38.451Z,59.83
2022-08-03T06:08:11.889Z,58.50
2022-08-03T06:09:11.906Z,58.80
2022-08-03T06:10:35.886Z,58.60
2022-08-03T06:11:11.931Z,58.70
2022-08-03T06:12:14.182Z,58.70
2022-08-03T06:13:11.954Z,58.44
2022-08-03T06:14:11.961Z,58.31
2022-08-03T06:15:11.973Z,58.24
2022-08-03T06:16:11.993Z,58.31
2022-08-03T06:17:12.003Z,58.44
2022-08-03T06:18:12.010Z,58.04
2022-08-03T06:19:12.020Z,57.86
2022-08-03T06:20:12.034Z,57.56
2022-08-03T06:21:14.772Z,57.76
2022-08-03T06:22:12.067Z,57.66
2022-08-03T06:23:17.690Z,57.66
2022-08-03T06:24:12.091Z,57.86
2022-08-03T06:25:13.040Z,57.18
2022-08-03T06:26:12.143Z,57.28
2022-08-03T06:27:12.124Z,57.46
2022-08-03T06:28:23.755Z,57.37
2022-08-03T06:29:12.160Z,57.01
2022-08-03T06:30:12.167Z,57.01
2022-08-03T06:31:12.179Z,56.92
2022-08-03T06:32:12.183Z,56.52
2022-08-03T06:33:12.198Z,56.62
2022-08-03T06:34:33.441Z,56.34
2022-08-03T06:35:12.229Z,56.14
2022-08-03T06:36:12.242Z,56.04
2022-08-03T06:37:12.249Z,55.78
2022-08-03T06:38:12.267Z,55.98
2022-08-03T06:39:12.274Z,55.88
2022-08-03T06:40:13.916Z,55.68
2022-08-03T06:41:12.300Z,55.78
2022-08-03T06:42:12.313Z,55.58
2022-08-03T06:43:12.689Z,55.30
2022-08-03T06:44:12.338Z,55.58
2022-08-03T06:45:12.353Z,55.40
2022-08-03T06:46:12.364Z,55.49
2022-08-03T06:47:12.383Z,55.49
2022-08-03T06:48:12.390Z,55.40
2022-08-03T06:49:12.459Z,55.00
2022-08-03T06:50:17.841Z,55.04
2022-08-03T06:51:12.433Z,55.42
2022-08-03T06:52:12.488Z,54.74
2022-08-03T06:53:21.196Z,54.26
2022-08-03T06:54:12.468Z,54.16
2022-08-03T06:55:12.490Z,54.45
2022-08-03T06:56:12.495Z,54.64
2022-08-03T06:57:12.515Z,54.77
2022-08-03T06:58:12.522Z,54.77
2022-08-03T07:00:10.593Z,54.58
2022-08-03T07:00:12.923Z,54.09
2022-08-03T07:01:12.610Z,53.99
2022-08-03T07:02:12.570Z,53.99
2022-08-03T07:03:12.592Z,54.19
2022-08-03T07:04:12.597Z,53.73
2022-08-03T07:05:12.614Z,53.70
2022-08-03T07:06:12.631Z,53.73
2022-08-03T07:07:12.637Z,53.63
2022-08-03T07:08:12.651Z,53.24
2022-08-03T07:09:12.672Z,53.15
2022-08-03T07:10:12.683Z,53.44
2022-08-03T07:11:12.690Z,52.86
2022-08-03T07:12:12.715Z,52.37
2022-08-03T07:13:12.718Z,52.18
2022-08-03T07:14:12.732Z,52.08
2022-08-03T07:15:20.626Z,51.91
2022-08-03T07:16:12.763Z,52.01
2022-08-03T07:17:12.776Z,52.01
2022-08-03T07:18:12.791Z,51.43
2022-08-03T07:19:12.797Z,51.43
2022-08-03T07:20:12.811Z,51.14
2022-08-03T07:21:12.825Z,51.26
2022-08-03T07:22:12.891Z,51.14
2022-08-03T07:23:18.818Z,51.72
2022-08-03T07:24:12.864Z,51.72
2022-08-03T07:25:12.885Z,51.26
2022-08-03T07:26:12.892Z,50.87
2022-08-03T07:27:12.904Z,50.48
2022-08-03T07:28:12.927Z,50.87
2022-08-03T07:29:15.000Z,50.96
2022-08-03T07:30:12.953Z,50.29
2022-08-03T07:31:12.964Z,49.71
2022-08-03T07:32:12.973Z,49.44
2022-08-03T07:33:12.985Z,49.61
2022-08-03T07:34:13.020Z,49.44
2022-08-03T07:35:24.980Z,49.44
2022-08-03T07:36:13.034Z,49.44
2022-08-03T07:37:13.047Z,49.63
2022-08-03T07:38:13.060Z,48.75
2022-08-03T07:39:17.768Z,48.85
2022-08-03T07:40:13.080Z,48.57
2022-08-03T07:41:13.104Z,48.95
2022-08-03T07:42:13.109Z,49.07
2022-08-03T07:43:13.129Z,48.97
2022-08-03T07:44:13.145Z,48.58
2022-08-03T07:45:16.736Z,48.49
2022-08-03T07:46:13.162Z,48.30
2022-08-03T07:47:22.278Z,48.39
2022-08-03T07:48:13.190Z,48.30
2022-08-03T07:49:13.273Z,47.61
2022-08-03T07:50:13.226Z,47.81
2022-08-03T07:51:13.232Z,47.61
2022-08-03T07:52:13.248Z,47.42
2022-08-03T07:53:13.259Z,47.83
2022-08-03T07:54:13.279Z,47.15
2022-08-03T07:55:13.294Z,47.05
2022-08-03T07:56:13.306Z,47.25
2022-08-03T07:57:13.323Z,47.15
2022-08-03T07:58:13.338Z,47.15
2022-08-03T07:59:13.343Z,46.77
2022-08-03T08:00:13.359Z,46.86
2022-08-03T08:01:15.173Z,46.37
2022-08-03T08:02:13.394Z,46.67
2022-08-03T08:03:13.406Z,46.69
2022-08-03T08:04:13.415Z,46.50
2022-08-03T08:05:13.427Z,46.30
2022-08-03T08:06:13.450Z,46.40
2022-08-03T08:07:13.462Z,46.11
2022-08-03T08:08:13.477Z,46.11
2022-08-03T08:09:13.486Z,46.01
2022-08-03T08:10:13.556Z,46.11
2022-08-03T08:11:13.520Z,45.72
2022-08-03T08:12:14.954Z,46.03
2022-08-03T08:13:13.543Z,46.13
2022-08-03T08:14:13.558Z,45.84
2022-08-03T08:15:13.570Z,45.74
2022-08-03T08:16:13.594Z,45.74
2022-08-03T08:17:13.617Z,45.64
2022-08-03T08:18:13.621Z,44.79
2022-08-03T08:19:13.628Z,44.89
2022-08-03T08:20:13.647Z,44.49
2022-08-03T08:21:13.657Z,44.40
2022-08-03T08:22:13.733Z,44.13
2022-08-03T08:23:42.700Z,44.13
2022-08-03T08:24:18.066Z,44.23
2022-08-03T08:25:13.721Z,44.54
2022-08-03T08:26:13.727Z,43.95
2022-08-03T08:27:13.749Z,43.76
2022-08-03T08:28:29.234Z,43.57
2022-08-03T08:29:13.772Z,43.29
2022-08-03T08:30:18.756Z,43.49
2022-08-03T08:31:13.800Z,43.12
2022-08-03T08:32:13.821Z,42.73
2022-08-03T08:33:23.085Z,42.65
2022-08-03T08:34:13.845Z,42.65
2022-08-03T08:35:13.859Z,42.68
2022-08-03T08:36:15.607Z,42.29
2022-08-03T08:37:13.898Z,41.89
2022-08-03T08:38:13.904Z,41.52
2022-08-03T08:39:13.919Z,41.13
2022-08-03T08:40:13.933Z,41.54
2022-08-03T08:41:13.953Z,40.78
2022-08-03T08:42:13.985Z,40.92
2022-08-03T08:43:13.978Z,40.19
2022-08-03T08:44:13.997Z,39.25
2022-08-03T08:45:14.017Z,38.52
2022-08-03T08:47:51.095Z,34.77
2022-08-03T08:48:39.152Z,34.99
2022-08-03T08:49:49.486Z,34.43
2022-08-03T08:50:39.192Z,33.97
2022-08-03T08:52:54.444Z,32.25
2022-08-03T08:53:51.839Z,31.59
2022-08-03T08:54:51.862Z,30.81
2022-08-03T08:55:59.796Z,30.53
2022-08-03T09:03:39.568Z,28.60
2022-08-03T15:41:00.605Z,31.04
2022-08-03T15:42:00.623Z,31.02
2022-08-03T15:43:00.652Z,31.12
2022-08-03T15:44:00.664Z,31.02
2022-08-03T15:45:01.097Z,31.02
2022-08-03T15:46:30.306Z,31.12
2022-08-03T15:47:00.733Z,31.12
2022-08-03T15:48:03.375Z,31.10
2022-08-03T15:49:03.792Z,31.20
2022-08-03T15:50:00.794Z,31.30
2022-08-03T15:51:00.816Z,31.40
2022-08-03T15:52:00.833Z,31.30
2022-08-03T15:53:00.846Z,31.30
2022-08-03T15:54:00.876Z,31.30
2022-08-03T15:55:00.888Z,31.32
2022-08-03T15:56:00.921Z,31.30
2022-08-03T15:57:00.935Z,31.50
2022-08-03T15:59:09.526Z,31.70
2022-08-03T15:59:12.442Z,31.60
2022-08-03T16:00:00.991Z,31.60
2022-08-03T16:01:01.045Z,31.61
2022-08-03T16:02:01.101Z,31.40
2022-08-03T16:03:01.055Z,31.40
2022-08-03T16:04:01.077Z,31.30
2022-08-03T16:05:01.100Z,31.50
2022-08-03T16:06:01.118Z,31.51
2022-08-03T16:07:01.136Z,31.40
2022-08-03T16:08:04.303Z,31.41
2022-08-03T16:09:01.174Z,31.32
2022-08-03T16:10:01.202Z,31.32
2022-08-03T16:11:01.220Z,31.41
2022-08-03T16:12:01.234Z,31.51
2022-08-03T16:13:01.264Z,31.61
2022-08-03T16:14:13.002Z,31.41
2022-08-03T16:15:01.308Z,31.41
2022-08-03T16:16:01.324Z,31.41
2022-08-03T16:17:01.342Z,31.71
2022-08-03T16:18:01.364Z,31.61
2022-08-03T16:19:05.355Z,31.71
2022-08-03T16:20:02.657Z,31.61
2022-08-03T16:21:01.417Z,31.71
2022-08-03T16:22:01.446Z,31.61
2022-08-03T16:23:03.370Z,31.32
2022-08-03T16:24:01.479Z,31.51
2022-08-03T16:25:01.497Z,31.61
2022-08-03T16:26:03.348Z,31.61
2022-08-03T16:27:01.677Z,31.51
2022-08-03T16:28:07.829Z,31.61
2022-08-03T16:29:01.588Z,31.61
2022-08-03T16:30:01.609Z,31.70
2022-08-03T16:31:01.629Z,31.70
2022-08-03T16:32:04.078Z,31.70
2022-08-03T16:33:01.661Z,31.99
2022-08-03T16:34:01.680Z,31.99
2022-08-03T16:35:01.703Z,31.99
2022-08-03T16:36:01.721Z,31.70
2022-08-03T16:37:16.561Z,31.99
2022-08-03T16:38:05.379Z,32.09
2022-08-03T16:39:01.866Z,32.17
2022-08-03T16:40:01.807Z,32.17
2022-08-03T16:41:01.818Z,32.27
2022-08-03T16:42:01.978Z,32.07
2022-08-03T16:43:01.860Z,32.27
2022-08-03T16:44:04.364Z,32.17
2022-08-03T16:45:01.906Z,32.17
2022-08-03T16:46:01.925Z,32.45
2022-08-03T16:47:01.940Z,32.64
2022-08-03T16:48:05.585Z,32.45
2022-08-03T16:49:01.978Z,32.45
2022-08-03T16:50:05.802Z,32.74
2022-08-03T16:52:34.682Z,32.74
2022-08-03T16:54:05.278Z,32.74
2022-08-03T16:54:34.720Z,32.84
2022-08-03T16:55:48.394Z,32.84
2022-08-03T16:56:36.393Z,32.74
2022-08-03T16:57:58.424Z,32.45
2022-08-03T16:58:42.314Z,32.54
2022-08-03T16:59:36.575Z,32.74
2022-08-03T17:07:19.601Z,32.74
2022-08-03T17:08:26.500Z,32.84
2022-08-03T17:09:20.657Z,32.94
2022-08-03T17:10:21.932Z,32.74
2022-08-03T17:11:19.390Z,32.84
2022-08-03T17:12:19.410Z,32.94
2022-08-03T17:13:22.511Z,32.94
2022-08-03T17:14:22.130Z,32.74
2022-08-03T17:15:19.459Z,32.74
2022-08-03T17:16:19.479Z,32.84
2022-08-03T17:17:19.496Z,32.94
2022-08-03T17:18:21.980Z,32.84
2022-08-03T17:19:19.547Z,33.14
2022-08-03T17:20:19.565Z,33.04
2022-08-03T17:21:19.573Z,33.14
2022-08-03T17:22:19.901Z,34.01
2022-08-03T17:23:34.325Z,33.62
2022-08-03T17:24:19.823Z,33.23
2022-08-03T17:25:22.127Z,33.31
2022-08-03T17:26:21.982Z,33.33
2022-08-03T17:28:48.393Z,33.33
2022-08-03T17:28:49.703Z,33.22
2022-08-03T17:29:19.733Z,33.31
2022-08-03T17:30:20.269Z,33.22
2022-08-03T17:31:23.591Z,33.22
2022-08-03T17:32:21.372Z,33.22
2022-08-03T17:33:20.458Z,33.31
2022-08-03T17:34:19.826Z,33.22
2022-08-03T17:35:20.917Z,33.51
2022-08-03T17:36:19.910Z,33.61
2022-08-03T17:37:50.460Z,33.51
2022-08-03T17:38:22.852Z,33.61
2022-08-03T17:39:31.177Z,33.61
2022-08-03T17:40:19.990Z,33.41
2022-08-03T17:41:19.954Z,33.51
2022-08-03T17:42:30.542Z,33.61
2022-08-03T17:44:12.872Z,33.39
2022-08-03T17:44:33.116Z,33.59
2022-08-03T17:45:20.020Z,33.89
2022-08-03T17:46:20.039Z,33.98
2022-08-03T17:47:20.058Z,33.89
2022-08-03T17:48:20.083Z,33.98
2022-08-03T17:49:20.093Z,34.08
2022-08-03T17:50:24.047Z,34.38
2022-08-03T17:51:20.130Z,34.67
2022-08-03T17:52:20.460Z,34.55
2022-08-03T17:53:24.328Z,34.65
2022-08-03T17:54:20.186Z,34.75
2022-08-03T17:55:57.370Z,34.75
2022-08-03T17:56:38.744Z,35.04
2022-08-03T17:57:22.477Z,35.04
2022-08-03T17:58:20.896Z,34.94
2022-08-03T17:59:50.565Z,34.93
2022-08-03T18:00:20.301Z,34.93
2022-08-03T18:01:57.861Z,35.42
2022-08-03T18:02:29.942Z,35.71
2022-08-03T18:03:20.771Z,35.61
2022-08-03T18:04:20.373Z,35.52
2022-08-03T18:05:21.678Z,35.91
2022-08-03T18:06:28.525Z,36.00
2022-08-03T18:07:20.422Z,35.91
2022-08-03T18:08:20.440Z,36.57
2022-08-03T18:10:04.315Z,36.47
2022-08-03T18:10:20.477Z,36.38
2022-08-03T18:11:20.503Z,36.57
2022-08-03T18:12:22.313Z,36.67
2022-08-03T18:13:20.535Z,36.87
2022-08-03T18:14:20.548Z,37.14
2022-08-03T18:15:21.288Z,37.04
2022-08-03T18:16:20.583Z,37.16
2022-08-03T18:17:20.608Z,37.24
2022-08-03T18:18:32.315Z,37.16
2022-08-03T18:19:20.637Z,37.24
2022-08-03T18:20:32.966Z,37.24
2022-08-03T18:21:20.671Z,37.04
2022-08-03T18:22:21.037Z,37.14
2022-08-03T18:23:36.519Z,37.83
2022-08-03T18:24:20.727Z,37.63
2022-08-03T18:25:42.746Z,37.93
2022-08-03T18:26:20.770Z,38.90
2022-08-03T18:27:20.787Z,38.49
2022-08-03T18:28:23.211Z,38.10
2022-08-03T18:29:20.823Z,38.01
2022-08-03T18:30:20.841Z,38.59
2022-08-03T18:32:00.452Z,38.79
2022-08-03T18:32:20.876Z,38.49
2022-08-03T18:34:16.859Z,38.98
2022-08-03T18:34:32.990Z,38.30
2022-08-03T18:35:20.927Z,38.79
2022-08-03T18:36:21.773Z,38.69
2022-08-03T18:37:24.751Z,38.40
2022-08-03T18:38:20.974Z,38.49
2022-08-03T18:39:21.081Z,38.49
2022-08-03T18:40:21.126Z,38.49
2022-08-03T18:41:33.672Z,38.79
2022-08-03T18:42:25.712Z,39.16
2022-08-03T18:43:21.066Z,39.45
2022-08-03T18:44:53.276Z,39.16
2022-08-03T18:45:55.919Z,40.04
2022-08-03T18:46:21.119Z,39.94
2022-08-03T18:47:21.136Z,39.94
2022-08-03T18:48:21.152Z,40.04
2022-08-03T18:49:21.163Z,40.14
2022-08-03T18:50:21.183Z,40.33
2022-08-03T18:51:28.796Z,40.43
2022-08-03T18:52:21.426Z,40.50
2022-08-03T18:53:22.657Z,40.82
2022-08-03T18:54:51.791Z,40.99
2022-08-03T18:55:32.878Z,40.99
2022-08-03T18:56:21.295Z,40.89
2022-08-03T18:57:21.302Z,40.89
2022-08-03T18:58:21.326Z,41.38
2022-08-03T18:59:30.018Z,41.19
2022-08-03T19:00:24.255Z,41.19
2022-08-03T19:01:59.875Z,41.28
2022-08-03T19:02:21.614Z,41.28
2022-08-03T19:03:22.160Z,41.17
2022-08-03T19:04:24.282Z,41.48
2022-08-03T19:05:21.665Z,41.36
2022-08-03T19:06:21.465Z,41.95
2022-08-03T19:07:22.270Z,42.05
2022-08-03T19:08:21.492Z,42.34
2022-08-03T19:09:21.507Z,42.44
2022-08-03T19:10:21.535Z,42.44
2022-08-03T19:11:21.548Z,42.34
2022-08-03T19:12:32.346Z,42.73
2022-08-03T19:13:21.583Z,42.83
2022-08-03T19:14:21.592Z,42.63
2022-08-03T19:15:36.791Z,42.71
2022-08-03T19:16:21.628Z,42.61
2022-08-03T19:17:21.674Z,42.71
2022-08-03T19:18:21.668Z,42.90
2022-08-03T19:19:21.684Z,42.90
2022-08-03T19:20:21.695Z,42.90
2022-08-03T19:21:21.711Z,43.00
2022-08-03T19:22:22.122Z,43.59
2022-08-03T19:23:21.744Z,43.39
2022-08-03T19:24:21.762Z,43.68
2022-08-03T19:25:34.365Z,43.98
2022-08-03T19:26:30.856Z,44.24
2022-08-03T19:27:26.770Z,44.34
2022-08-03T19:28:21.828Z,44.07
2022-08-03T19:29:22.373Z,44.24
2022-08-03T19:30:26.110Z,43.95
2022-08-03T19:31:21.877Z,44.54
2022-08-03T19:32:22.322Z,44.24
2022-08-03T19:33:22.814Z,44.64
2022-08-03T19:34:21.930Z,43.95
2022-08-03T19:35:46.951Z,43.95
2022-08-03T19:36:26.292Z,43.76
2022-08-03T19:37:22.163Z,43.76
2022-08-03T19:38:28.579Z,43.66
2022-08-03T19:39:22.070Z,43.76
2022-08-03T19:40:22.033Z,43.85
2022-08-03T19:41:22.052Z,44.05
2022-08-03T19:42:23.132Z,43.76
2022-08-03T19:43:22.089Z,43.47
2022-08-03T19:44:22.099Z,43.47
2022-08-03T19:45:22.110Z,43.76
2022-08-03T19:46:22.143Z,44.05
2022-08-03T19:47:22.144Z,44.24
2022-08-03T19:48:22.257Z,44.34
2022-08-03T19:49:22.176Z,44.93
2022-08-03T19:50:22.195Z,44.83
2022-08-03T19:51:59.027Z,44.81
2022-08-03T19:52:24.361Z,44.83
2022-08-03T19:53:22.247Z,45.00
2022-08-03T19:54:29.310Z,44.81
2022-08-03T19:55:22.283Z,44.90
2022-08-03T19:56:22.291Z,44.81
2022-08-03T19:57:22.625Z,44.90
2022-08-03T19:58:28.587Z,44.90
2022-08-03T19:59:22.348Z,44.62
2022-08-03T20:00:26.389Z,44.90
2022-08-03T20:01:22.379Z,44.62
2022-08-03T20:02:27.249Z,45.00
2022-08-03T20:03:24.862Z,45.20
2022-08-03T20:04:22.430Z,45.59
2022-08-03T20:05:22.527Z,45.59
2022-08-03T20:06:22.461Z,45.98
2022-08-03T20:07:23.632Z,46.08
2022-08-03T20:08:22.485Z,46.05
2022-08-03T20:09:22.501Z,46.17
2022-08-03T20:10:22.523Z,46.15
2022-08-03T20:11:28.458Z,46.15
2022-08-03T20:12:27.811Z,46.34
2022-08-03T20:13:22.565Z,46.44
2022-08-03T20:14:26.543Z,46.34
2022-08-03T20:15:31.791Z,46.05
2022-08-03T20:16:22.615Z,45.67
2022-08-03T20:17:22.631Z,46.34
2022-08-03T20:18:22.653Z,46.44
2022-08-03T20:19:22.663Z,46.34
2022-08-03T20:21:22.696Z,46.73
2022-08-03T20:22:23.084Z,46.83
2022-08-03T20:23:22.813Z,47.22
2022-08-03T20:24:24.488Z,47.52
2022-08-03T20:25:22.760Z,47.52
2022-08-03T20:26:22.775Z,47.30
2022-08-03T20:27:22.791Z,47.30
2022-08-03T20:28:22.808Z,47.98
2022-08-03T20:29:22.825Z,47.78
2022-08-03T20:30:27.276Z,47.88
2022-08-03T20:31:32.471Z,47.78
2022-08-03T20:32:24.447Z,47.69
2022-08-03T20:33:27.896Z,47.78
2022-08-03T20:34:22.905Z,47.88
2022-08-03T20:35:22.921Z,47.88
2022-08-03T20:36:22.935Z,47.49
2022-08-03T20:37:22.951Z,47.98
2022-08-03T20:38:27.323Z,47.49
2022-08-03T20:39:23.019Z,47.78
2022-08-03T20:40:23.006Z,48.46
2022-08-03T20:41:23.021Z,48.46
2022-08-03T20:42:23.211Z,48.17
2022-08-03T20:43:23.054Z,48.27
2022-08-03T20:44:25.622Z,48.25
2022-08-03T20:45:59.125Z,48.83
2022-08-03T20:46:31.719Z,48.63
2022-08-03T20:47:23.867Z,48.34
2022-08-03T20:48:23.138Z,48.73
2022-08-03T20:49:23.241Z,48.83
2022-08-03T20:50:23.157Z,49.12
2022-08-03T20:51:27.099Z,49.12
2022-08-03T20:52:23.614Z,49.12
2022-08-03T20:53:41.311Z,49.12
2022-08-03T20:54:31.326Z,49.51
2022-08-03T20:55:47.963Z,49.32
2022-08-03T20:56:23.251Z,49.41
2022-08-03T20:57:23.269Z,49.61
2022-08-03T20:58:23.886Z,49.51
2022-08-03T20:59:23.301Z,49.51
2022-08-03T21:00:23.320Z,49.71
2022-08-03T21:01:27.934Z,49.80
2022-08-03T21:02:28.865Z,49.99
2022-08-03T21:03:23.363Z,49.78
2022-08-03T21:04:23.379Z,50.26
2022-08-03T21:06:11.401Z,50.16
2022-08-03T21:07:16.661Z,50.75
2022-08-03T21:08:10.982Z,50.65
2022-08-03T21:10:11.016Z,50.56
2022-08-03T21:11:11.037Z,50.65
2022-08-03T21:12:15.278Z,50.65
2022-08-03T21:13:03.878Z,47.00
2022-08-03T21:17:41.294Z,51.62
2022-08-03T21:18:40.327Z,51.40
2022-08-03T21:19:40.353Z,51.40
2022-08-03T21:20:40.358Z,51.60
2022-08-03T21:21:40.365Z,51.70
2022-08-03T21:22:40.380Z,51.60
2022-08-03T21:23:48.601Z,51.99
2022-08-03T21:24:40.412Z,51.99
2022-08-03T21:25:40.429Z,51.99
2022-08-03T21:26:40.450Z,51.89
2022-08-03T21:27:40.458Z,52.47
2022-08-03T21:28:40.474Z,52.09
2022-08-03T21:29:53.240Z,51.99
2022-08-03T21:30:40.511Z,52.28
2022-08-03T21:31:40.526Z,52.09
2022-08-03T21:32:40.726Z,52.28
2022-08-03T21:33:40.822Z,52.76
2022-08-03T21:34:40.571Z,53.16
2022-08-03T21:35:40.588Z,52.76
2022-08-03T21:36:40.602Z,52.74
2022-08-03T21:37:40.617Z,53.35
2022-08-03T21:38:40.625Z,53.22